Portada
METAR-TAF:

METAR-TAF

Aeroports :

Petropavl, Kazakhstan

latitud: 54-46-28N, longitud: 069-11-06E, altitud: 139 m

Observació

L'informe es va fer fa 13 hores i 13 minuts, a les 11:30 UTC
Vent 6 kt del Sud-Est
Temperatura 13°C
Humitat 47%
Pressió 1006 hPa
Visibilitat 10 km o més
sense núvols per sota de 1500 mi sense presència de cumulonimbus.

METAR: UACP 011130Z 14003MPS CAVOK 13/02 Q1006 R05/0/0060 NOSIG RMK QFE742/0990

Hora: 06:43 (00:43 UTC)

Pronòstic

L'informe es va fer fa 16 hores i 35 minuts, a les 08:08 UTC
Pronòstic vàlid del 01 a les 09 UTC al 01 a les 18 UTC
Vent 12 kt del Sud-Est
Visibilitat 10 km o més
Núvols disperses a una alçada de 3000 ft

TAF: UACP 010808Z 0109/0118 14006MPS 9999 SCT030

Observacions i pronòstics meteorològics de més de 4000 aeroports (METAR i TAF).

Les estacions disponibles són els punts grocs i vermells al mapa.

Posi el ratolí al punt desitjat per veure el nom de l'estació.

Feu clic per veure les observacions i els pronòstics meteorològics.

Per canviar el mapa: feu clic els botons verds amb una creu de color negre per apropar; al botó verd amb un guió per allunyar la imatge; o en les fletxes verdes per a mapes adjacents.


METAR-TAF: